Time;durP1;ratioP1;P1;durP2;ratioP2;P2;SDS_P1;SDS_P2;PMS_P1;PMS_P2;Temp;Humidity;BMP_temperature;BMP_pressure;BME280_temperature;BME280_humidity;BME280_pressure;Samples;Min_cycle;Max_cycle;Signal;HPM_P1;HPM_P2
2021/12/10 00:01:31;;;;;;;4.23;2.37;;;6.30;99.90;;;;;;5051762;28;20225;-55
2021/12/10 00:04:00;;;;;;;4.83;2.40;;;6.30;99.90;;;;;;5052369;28;20275;-55
2021/12/10 00:06:30;;;;;;;6.40;2.37;;;6.30;99.90;;;;;;5052029;28;20212;-55
2021/12/10 00:09:03;;;;;;;6.57;2.10;;;6.20;99.90;;;;;;5055602;28;20209;-55
2021/12/10 00:11:34;;;;;;;4.47;2.07;;;6.20;99.90;;;;;;5055711;28;20237;-55
2021/12/10 00:14:01;;;;;;;7.13;2.00;;;6.30;99.90;;;;;;5056282;28;20209;-56
2021/12/10 00:16:29;;;;;;;4.57;2.10;;;6.20;99.90;;;;;;5055963;28;20216;-56
2021/12/10 00:19:08;;;;;;;5.83;1.97;;;6.20;99.90;;;;;;5056344;28;20346;-56
2021/12/10 00:21:36;;;;;;;5.47;2.30;;;6.10;99.90;;;;;;5055408;28;20717;-54
2021/12/10 00:24:04;;;;;;;5.43;1.80;;;6.00;99.90;;;;;;5056035;28;20205;-55
2021/12/10 00:26:31;;;;;;;8.60;1.70;;;5.90;99.90;;;;;;5055956;28;20212;-55
2021/12/10 00:29:03;;;;;;;4.10;1.83;;;5.90;99.90;;;;;;5055909;28;20209;-55
2021/12/10 00:31:44;;;;;;;5.03;1.83;;;5.80;99.90;;;;;;5055712;28;20251;-56
2021/12/10 00:34:20;;;;;;;5.50;1.93;;;5.80;99.90;;;;;;5055547;28;20209;-55
2021/12/10 00:36:48;;;;;;;4.63;2.30;;;5.80;99.90;;;;;;5055765;28;20217;-55
2021/12/10 00:39:20;;;;;;;5.93;2.20;;;5.80;99.90;;;;;;5055712;28;20213;-55
2021/12/10 00:41:48;;;;;;;4.50;1.87;;;5.70;99.90;;;;;;5055159;28;20236;-55
2021/12/10 00:44:14;;;;;;;5.50;1.87;;;5.80;99.90;;;;;;5055220;28;20213;-55
2021/12/10 00:46:41;;;;;;;4.57;1.63;;;5.70;99.90;;;;;;5055200;28;20251;-55
2021/12/10 00:49:08;;;;;;;6.07;1.80;;;5.60;99.90;;;;;;5055426;28;20205;-55
2021/12/10 00:51:35;;;;;;;3.70;1.70;;;5.60;99.90;;;;;;5055038;28;20233;-55
2021/12/10 00:54:03;;;;;;;4.60;1.63;;;5.50;99.90;;;;;;5055306;28;20201;-56
2021/12/10 00:56:31;;;;;;;5.37;1.80;;;5.50;99.90;;;;;;5055038;28;20254;-57
2021/12/10 00:58:58;;;;;;;4.00;1.60;;;5.40;99.90;;;;;;5055067;28;20263;-55
2021/12/10 01:01:28;;;;;;;5.53;1.77;;;5.40;99.90;;;;;;5054970;28;20233;-55
2021/12/10 01:03:58;;;;;;;4.43;1.80;;;5.30;99.90;;;;;;5054955;28;20209;-55
2021/12/10 01:06:27;;;;;;;5.50;1.70;;;5.30;99.90;;;;;;5055428;28;20260;-55
2021/12/10 01:08:57;;;;;;;4.93;1.40;;;5.10;99.90;;;;;;5054891;28;20673;-55
2021/12/10 01:11:28;;;;;;;3.17;1.37;;;5.00;99.90;;;;;;5054766;28;20225;-55
2021/12/10 01:14:03;;;;;;;4.63;1.30;;;4.90;99.90;;;;;;5054456;28;20618;-56
2021/12/10 01:25:04;;;;;;;6.47;1.67;;;4.60;99.90;;;;;;5054785;28;20216;-55
2021/12/10 01:27:33;;;;;;;4.53;1.50;;;4.50;99.90;;;;;;5054559;28;20213;-55
2021/12/10 01:30:08;;;;;;;6.17;1.80;;;4.50;99.90;;;;;;5054720;28;20230;-56
2021/12/10 01:32:38;;;;;;;5.40;1.80;;;4.40;99.90;;;;;;5054481;28;20266;-55
2021/12/10 01:35:06;;;;;;;5.20;1.60;;;4.40;99.90;;;;;;5054444;28;20619;-54
2021/12/10 01:37:33;;;;;;;8.13;2.10;;;4.30;99.90;;;;;;5054491;28;20282;-56
2021/12/10 01:40:00;;;;;;;3.83;1.40;;;4.30;99.90;;;;;;5054342;28;20245;-55
2021/12/10 01:42:39;;;;;;;3.77;1.17;;;4.10;99.90;;;;;;5054064;28;20632;-55
2021/12/10 01:45:17;;;;;;;4.27;1.47;;;4.10;99.90;;;;;;5054334;28;20693;-56
2021/12/10 01:47:45;;;;;;;6.77;2.00;;;4.00;99.90;;;;;;5054346;28;20231;-54
2021/12/10 01:50:12;;;;;;;3.87;1.70;;;3.90;99.90;;;;;;5054250;28;20636;-55
2021/12/10 01:52:39;;;;;;;4.83;1.43;;;3.90;99.90;;;;;;5053876;28;20229;-54
2021/12/10 01:55:08;;;;;;;4.67;1.40;;;3.80;99.90;;;;;;5054072;28;20201;-55
2021/12/10 01:57:38;;;;;;;5.40;1.40;;;3.70;99.90;;;;;;5053966;28;20213;-55
2021/12/10 02:00:09;;;;;;;3.73;1.40;;;3.60;99.90;;;;;;5054271;28;20312;-55
2021/12/10 02:02:38;;;;;;;6.40;1.30;;;3.60;99.90;;;;;;5053776;28;20260;-55
2021/12/10 02:05:06;;;;;;;3.50;1.73;;;3.50;99.90;;;;;;5053756;28;20217;-55
2021/12/10 02:07:33;;;;;;;2.47;1.10;;;3.40;99.90;;;;;;5053720;28;20572;-55
2021/12/10 02:09:59;;;;;;;5.10;1.63;;;3.40;99.90;;;;;;5053644;28;20222;-56
2021/12/10 02:12:26;;;;;;;3.53;1.60;;;3.20;99.90;;;;;;5053148;28;20763;-55
2021/12/10 02:15:00;;;;;;;3.90;1.60;;;3.20;99.90;;;;;;5053975;28;20229;-55
2021/12/10 02:17:31;;;;;;;5.53;1.60;;;3.10;99.90;;;;;;5053638;28;20213;-55
2021/12/10 02:20:01;;;;;;;4.83;1.53;;;2.90;99.90;;;;;;5053723;28;20230;-55
2021/12/10 02:22:29;;;;;;;4.83;1.40;;;2.80;99.90;;;;;;5053317;28;20282;-55
2021/12/10 02:24:56;;;;;;;3.77;1.60;;;2.70;99.90;;;;;;5053469;28;20696;-55
2021/12/10 02:27:23;;;;;;;4.03;1.57;;;2.40;99.90;;;;;;5053609;28;20651;-55
2021/12/10 02:29:49;;;;;;;6.00;1.73;;;2.30;99.90;;;;;;5053073;28;20213;-55
2021/12/10 02:32:16;;;;;;;3.40;1.10;;;2.20;99.90;;;;;;5052841;28;20275;-56
2021/12/10 02:34:44;;;;;;;6.27;2.13;;;2.10;99.90;;;;;;5053337;28;20244;-55
2021/12/10 02:37:11;;;;;;;4.57;1.70;;;2.00;99.90;;;;;;5053222;28;20209;-55
2021/12/10 02:39:40;;;;;;;4.13;1.80;;;1.90;99.90;;;;;;5053129;28;20626;-54
2021/12/10 02:42:06;;;;;;;3.57;1.50;;;1.90;99.90;;;;;;5053322;28;20267;-55
2021/12/10 02:44:34;;;;;;;5.53;2.20;;;1.80;99.90;;;;;;5053448;28;20212;-55
2021/12/10 02:47:01;;;;;;;4.37;2.00;;;1.90;99.90;;;;;;5053038;28;20212;-55
2021/12/10 02:49:29;;;;;;;5.43;1.90;;;1.90;99.90;;;;;;5053008;28;20669;-55
2021/12/10 02:51:56;;;;;;;4.77;1.90;;;2.00;99.90;;;;;;5052620;28;20230;-54
2021/12/10 02:54:33;;;;;;;6.43;1.93;;;2.10;99.90;;;;;;5053132;28;20296;-55
2021/12/10 02:57:02;;;;;;;3.80;2.00;;;2.10;99.90;;;;;;5053041;28;20209;-55
2021/12/10 02:59:29;;;;;;;5.47;2.40;;;2.00;99.90;;;;;;5052911;28;20213;-56
2021/12/10 03:01:56;;;;;;;4.70;2.20;;;1.90;99.90;;;;;;5052644;28;20240;-56
2021/12/10 03:04:23;;;;;;;4.50;2.10;;;1.80;99.90;;;;;;5052698;28;20209;-56
2021/12/10 03:06:54;;;;;;;5.30;2.23;;;1.60;99.90;;;;;;5052836;28;20201;-54
2021/12/10 03:09:23;;;;;;;5.83;2.20;;;1.50;99.90;;;;;;5052959;28;20263;-54
2021/12/10 03:11:52;;;;;;;7.03;2.63;;;1.50;99.90;;;;;;5052037;28;20690;-55
2021/12/10 03:14:24;;;;;;;4.17;2.30;;;1.40;99.90;;;;;;5052548;28;20206;-56
2021/12/10 03:16:54;;;;;;;9.17;2.30;;;1.30;99.90;;;;;;5052888;28;20216;-56
2021/12/10 03:19:22;;;;;;;4.23;1.90;;;1.30;99.90;;;;;;5052723;28;20214;-55
2021/12/10 03:21:51;;;;;;;8.03;2.00;;;1.30;99.90;;;;;;5052207;28;20225;-55
2021/12/10 03:24:22;;;;;;;3.43;1.80;;;1.30;99.90;;;;;;5052555;28;20235;-55
2021/12/10 03:26:51;;;;;;;6.57;2.00;;;1.50;99.90;;;;;;5052209;28;20674;-55
2021/12/10 03:29:18;;;;;;;3.90;1.93;;;1.60;99.90;;;;;;5052126;28;20241;-56
2021/12/10 03:31:47;;;;;;;6.93;2.37;;;1.70;99.90;;;;;;5052239;28;20229;-56
2021/12/10 03:34:13;;;;;;;5.30;1.97;;;1.80;99.90;;;;;;5052929;28;20217;-56
2021/12/10 03:36:45;;;;;;;3.60;2.03;;;1.80;99.90;;;;;;5052506;28;20210;-56
2021/12/10 03:39:13;;;;;;;5.37;2.63;;;1.80;99.90;;;;;;5052369;28;20205;-57
2021/12/10 03:41:39;;;;;;;5.53;2.40;;;1.90;99.90;;;;;;5051534;28;20233;-56
2021/12/10 03:44:07;;;;;;;5.50;2.00;;;1.80;99.90;;;;;;5051756;28;20610;-57
2021/12/10 03:46:34;;;;;;;10.00;1.80;;;1.90;99.90;;;;;;5052437;28;20205;-56
2021/12/10 03:49:03;;;;;;;3.70;2.00;;;1.80;99.90;;;;;;5052053;28;20209;-56
2021/12/10 03:51:31;;;;;;;8.03;2.07;;;1.80;99.90;;;;;;5051948;28;20229;-54
2021/12/10 03:53:58;;;;;;;5.17;2.10;;;1.90;99.90;;;;;;5051656;28;20629;-56
2021/12/10 03:56:27;;;;;;;4.17;1.97;;;1.80;99.90;;;;;;5051874;28;20217;-57
2021/12/10 03:58:56;;;;;;;5.53;1.67;;;1.90;99.90;;;;;;5052261;28;20284;-56
2021/12/10 04:01:27;;;;;;;6.23;2.50;;;2.00;99.90;;;;;;5052241;28;20230;-56
2021/12/10 04:03:56;;;;;;;7.33;1.57;;;1.90;99.90;;;;;;5051825;28;20205;-56
2021/12/10 04:06:24;;;;;;;8.43;1.90;;;1.90;99.90;;;;;;5051982;28;20205;-57
2021/12/10 04:08:51;;;;;;;4.40;1.90;;;2.00;99.90;;;;;;5051801;28;20206;-57
2021/12/10 04:11:18;;;;;;;3.90;1.60;;;1.70;99.90;;;;;;5051790;28;20648;-56
2021/12/10 04:13:47;;;;;;;3.30;1.80;;;1.70;99.90;;;;;;5051805;28;20221;-55
2021/12/10 04:16:14;;;;;;;8.87;1.97;;;1.60;99.90;;;;;;5052161;28;20335;-54
2021/12/10 04:18:41;;;;;;;4.73;2.00;;;1.50;99.90;;;;;;5051639;28;20674;-55
2021/12/10 04:21:09;;;;;;;4.20;1.80;;;1.50;99.90;;;;;;5051618;28;20236;-56
2021/12/10 04:23:37;;;;;;;4.07;2.10;;;1.40;99.90;;;;;;5051463;28;20692;-56
2021/12/10 04:26:05;;;;;;;4.33;1.83;;;1.40;99.90;;;;;;5051925;28;20601;-56
2021/12/10 04:28:32;;;;;;;4.20;2.10;;;1.50;99.90;;;;;;5051817;28;20297;-56
2021/12/10 04:30:59;;;;;;;4.97;2.03;;;1.50;99.90;;;;;;5051517;28;20225;-57
2021/12/10 04:33:27;;;;;;;3.97;2.20;;;1.50;99.90;;;;;;5051230;28;20275;-56
2021/12/10 04:35:57;;;;;;;4.20;2.03;;;1.50;99.90;;;;;;5051348;28;20205;-56
2021/12/10 04:38:26;;;;;;;5.33;2.20;;;1.50;99.90;;;;;;5051542;28;20213;-56
2021/12/10 04:40:57;;;;;;;4.13;2.10;;;1.40;99.90;;;;;;5051316;28;20233;-56
2021/12/10 04:43:24;;;;;;;6.20;2.40;;;1.20;99.90;;;;;;5051493;28;20301;-56
2021/12/10 04:45:53;;;;;;;2.93;1.80;;;1.20;99.90;;;;;;5051563;28;20425;-55
2021/12/10 04:48:20;;;;;;;4.63;1.80;;;1.10;99.90;;;;;;5051254;28;20216;-55
2021/12/10 04:50:46;;;;;;;3.37;2.20;;;1.10;99.90;;;;;;5051515;28;20229;-54
2021/12/10 04:53:14;;;;;;;3.90;2.20;;;1.00;99.90;;;;;;5051590;28;20283;-54
2021/12/10 04:55:41;;;;;;;5.87;2.37;;;1.00;99.90;;;;;;5055512;28;20297;-56
2021/12/10 04:58:10;;;;;;;7.30;2.63;;;0.90;99.90;;;;;;5055198;28;20293;-56
2021/12/10 05:00:40;;;;;;;4.87;2.13;;;0.90;99.90;;;;;;5055153;28;20649;-55
2021/12/10 05:03:08;;;;;;;5.70;2.20;;;0.90;99.90;;;;;;5054751;28;20232;-55
2021/12/10 05:05:35;;;;;;;6.63;2.70;;;0.90;99.90;;;;;;5056082;28;20205;-54
2021/12/10 05:08:02;;;;;;;5.03;2.60;;;0.90;99.90;;;;;;5056072;28;20213;-55
2021/12/10 05:10:29;;;;;;;6.67;2.93;;;0.90;99.90;;;;;;5055191;28;20233;-54
2021/12/10 05:12:56;;;;;;;6.43;2.70;;;0.90;99.90;;;;;;5054501;28;20233;-55
2021/12/10 05:15:26;;;;;;;7.43;3.00;;;0.80;99.90;;;;;;5054824;28;20232;-55
2021/12/10 05:17:54;;;;;;;6.17;3.47;;;0.90;99.90;;;;;;5054816;28;20209;-54
2021/12/10 05:20:24;;;;;;;4.77;2.93;;;1.00;99.90;;;;;;5054757;28;20234;-54
2021/12/10 05:22:52;;;;;;;9.27;3.10;;;1.10;99.90;;;;;;5054626;28;20251;-55
2021/12/10 05:25:20;;;;;;;6.20;3.40;;;1.10;99.90;;;;;;5054721;28;20206;-55
2021/12/10 05:27:48;;;;;;;5.70;3.33;;;1.00;99.90;;;;;;5054744;28;20214;-55
2021/12/10 05:30:20;;;;;;;8.10;3.60;;;1.00;99.90;;;;;;5054271;28;20229;-54
2021/12/10 05:32:48;;;;;;;10.30;3.73;;;1.00;99.90;;;;;;5054263;28;20724;-56
2021/12/10 05:35:15;;;;;;;5.63;3.33;;;1.00;99.90;;;;;;5054564;28;20295;-55
2021/12/10 05:37:42;;;;;;;10.23;3.97;;;1.00;99.90;;;;;;5054453;28;20201;-54
2021/12/10 05:40:12;;;;;;;7.20;3.60;;;0.90;99.90;;;;;;5054632;28;20234;-54
2021/12/10 05:42:39;;;;;;;7.97;3.27;;;0.80;99.90;;;;;;5054011;28;20627;-55
2021/12/10 05:45:07;;;;;;;7.63;4.10;;;0.60;99.90;;;;;;5054499;28;20210;-55
2021/12/10 05:47:34;;;;;;;6.60;3.87;;;0.50;99.90;;;;;;5054636;28;20595;-56
2021/12/10 05:50:02;;;;;;;6.97;4.33;;;0.50;99.90;;;;;;5054248;28;20228;-55
2021/12/10 05:52:29;;;;;;;8.50;4.13;;;0.40;99.90;;;;;;5053816;28;20230;-55
2021/12/10 05:54:55;;;;;;;10.17;4.50;;;0.40;99.90;;;;;;5053900;28;20205;-54
2021/12/10 05:57:22;;;;;;;7.37;4.07;;;0.30;99.90;;;;;;5054125;28;20213;-56
2021/12/10 05:59:49;;;;;;;9.97;4.50;;;0.40;99.90;;;;;;5054109;28;20211;-54
2021/12/10 06:02:16;;;;;;;10.17;4.57;;;0.30;99.90;;;;;;5053899;28;20257;-55
2021/12/10 06:04:43;;;;;;;11.07;4.70;;;0.40;99.90;;;;;;5053519;28;20209;-54
2021/12/10 06:07:11;;;;;;;7.83;5.70;;;0.50;99.90;;;;;;5053393;28;20222;-55
2021/12/10 06:09:38;;;;;;;13.90;5.30;;;0.70;99.90;;;;;;5053495;28;20209;-55
2021/12/10 06:12:05;;;;;;;9.27;5.23;;;0.70;99.90;;;;;;5053696;28;20688;-57
2021/12/10 06:14:32;;;;;;;9.20;5.57;;;0.70;99.90;;;;;;5053911;28;20205;-55
2021/12/10 06:16:59;;;;;;;11.20;5.73;;;0.70;99.90;;;;;;5053767;28;20209;-54
2021/12/10 06:19:26;;;;;;;9.40;5.37;;;0.80;99.90;;;;;;5054151;28;20235;-55
2021/12/10 06:21:53;;;;;;;11.93;6.20;;;1.00;99.90;;;;;;5053910;28;20226;-55
2021/12/10 06:24:21;;;;;;;9.60;5.87;;;1.10;99.90;;;;;;5053537;28;20612;-56
2021/12/10 06:26:51;;;;;;;8.63;6.00;;;1.20;99.90;;;;;;5053709;28;20595;-55
2021/12/10 06:29:18;;;;;;;12.37;7.07;;;1.30;99.90;;;;;;5053533;28;20229;-55
2021/12/10 06:31:45;;;;;;;8.27;5.87;;;1.30;99.90;;;;;;5053255;28;20595;-55
2021/12/10 06:34:12;;;;;;;9.67;5.70;;;1.30;99.90;;;;;;5052920;28;20225;-55
2021/12/10 06:36:39;;;;;;;16.80;5.70;;;1.20;99.90;;;;;;5053194;28;20699;-54
2021/12/10 06:39:09;;;;;;;9.10;5.30;;;1.10;99.90;;;;;;5053255;28;20665;-53
2021/12/10 06:41:37;;;;;;;14.20;6.27;;;1.10;99.90;;;;;;5053128;28;20229;-53
2021/12/10 06:44:04;;;;;;;14.00;8.00;;;1.00;99.90;;;;;;5052867;28;20212;-54
2021/12/10 06:46:31;;;;;;;10.43;6.80;;;0.90;99.90;;;;;;5052959;28;20210;-55
2021/12/10 06:48:58;;;;;;;10.87;6.20;;;0.90;99.90;;;;;;5053002;28;20210;-54
2021/12/10 06:51:25;;;;;;;11.13;6.03;;;0.90;99.90;;;;;;5052745;28;20233;-54
2021/12/10 06:53:52;;;;;;;12.23;5.90;;;0.90;99.90;;;;;;5052934;28;20230;-54
2021/12/10 06:56:21;;;;;;;10.17;6.57;;;0.80;99.90;;;;;;5052961;28;20283;-54
2021/12/10 06:58:49;;;;;;;9.73;6.13;;;0.80;99.90;;;;;;5052797;28;20244;-54
2021/12/10 07:01:22;;;;;;;10.07;6.10;;;0.80;99.90;;;;;;5052640;28;20226;-54
2021/12/10 07:03:49;;;;;;;12.17;6.43;;;0.80;99.90;;;;;;5052407;28;20647;-54
2021/12/10 07:06:17;;;;;;;10.93;6.50;;;0.80;99.90;;;;;;5052740;28;20279;-54
2021/12/10 07:08:46;;;;;;;8.53;5.87;;;0.80;99.90;;;;;;5052671;28;20276;-54
2021/12/10 07:11:15;;;;;;;8.27;6.17;;;0.70;99.90;;;;;;5052435;28;20241;-55
2021/12/10 07:13:46;;;;;;;11.23;6.23;;;0.70;99.90;;;;;;5052049;28;20225;-55
2021/12/10 07:16:14;;;;;;;14.60;6.50;;;0.70;99.90;;;;;;5051995;28;20205;-55
2021/12/10 07:18:41;;;;;;;9.83;6.50;;;0.60;99.90;;;;;;5052613;28;20214;-55
2021/12/10 07:21:08;;;;;;;10.43;6.73;;;0.60;99.90;;;;;;5052461;28;20319;-54
2021/12/10 07:23:36;;;;;;;9.70;6.50;;;0.60;99.90;;;;;;5052525;28;20198;-54
2021/12/10 07:26:03;;;;;;;10.53;7.17;;;0.70;99.90;;;;;;5052138;28;20764;-54
2021/12/10 07:28:30;;;;;;;14.60;7.67;;;0.70;99.90;;;;;;5052111;28;20621;-54
2021/12/10 07:30:57;;;;;;;9.77;6.67;;;0.70;99.90;;;;;;5051906;28;20232;-53
2021/12/10 07:33:25;;;;;;;14.83;6.57;;;0.80;99.90;;;;;;5052004;28;20225;-54
2021/12/10 07:35:52;;;;;;;10.00;7.00;;;0.90;99.90;;;;;;5052089;28;20205;-54
2021/12/10 07:38:20;;;;;;;10.50;6.17;;;0.90;99.90;;;;;;5052033;28;20209;-54
2021/12/10 07:40:47;;;;;;;11.30;6.83;;;1.00;99.90;;;;;;5051844;28;20276;-55
2021/12/10 07:43:15;;;;;;;10.17;6.63;;;1.00;99.90;;;;;;5052067;28;20209;-56
2021/12/10 07:45:46;;;;;;;12.93;7.60;;;1.10;99.90;;;;;;5052146;28;20586;-53
2021/12/10 07:48:16;;;;;;;14.50;6.97;;;1.20;99.90;;;;;;5052068;28;20208;-55
2021/12/10 07:50:52;;;;;;;11.13;6.63;;;1.40;99.90;;;;;;5051659;28;20727;-53
2021/12/10 07:53:20;;;;;;;9.97;6.37;;;1.50;99.90;;;;;;5051686;28;20252;-53
2021/12/10 07:55:48;;;;;;;13.50;8.47;;;1.70;99.90;;;;;;5052294;28;20264;-53
2021/12/10 07:58:15;;;;;;;10.20;6.37;;;1.80;99.90;;;;;;5052170;28;20213;-52
2021/12/10 08:00:46;;;;;;;9.00;6.00;;;2.00;99.90;;;;;;5053135;28;20272;-55
2021/12/10 08:03:12;;;;;;;10.17;6.37;;;2.10;99.90;;;;;;5051627;28;20209;-55
2021/12/10 08:05:41;;;;;;;7.27;5.37;;;2.30;99.90;;;;;;5052096;28;20209;-55
2021/12/10 08:08:10;;;;;;;8.03;5.77;;;2.50;99.90;;;;;;5051610;28;20669;-55
2021/12/10 08:10:39;;;;;;;8.50;5.80;;;2.60;99.90;;;;;;5052194;28;20253;-55
2021/12/10 08:13:06;;;;;;;10.40;5.73;;;2.80;99.90;;;;;;5051584;28;20229;-55
2021/12/10 08:15:34;;;;;;;8.00;5.03;;;3.00;99.90;;;;;;5051579;28;20677;-55
2021/12/10 08:18:01;;;;;;;7.20;5.07;;;3.10;99.90;;;;;;5051718;28;20205;-54
2021/12/10 08:20:29;;;;;;;7.67;4.70;;;3.10;99.90;;;;;;5051423;28;20706;-53
2021/12/10 08:22:56;;;;;;;8.97;5.33;;;3.20;99.90;;;;;;5051253;28;20251;-54
2021/12/10 08:25:26;;;;;;;7.83;5.33;;;3.40;99.90;;;;;;5051755;28;20221;-54
2021/12/10 08:27:54;;;;;;;8.33;4.90;;;3.60;99.90;;;;;;5051745;28;20212;-54
2021/12/10 08:30:24;;;;;;;8.40;5.10;;;3.60;99.90;;;;;;5055347;28;20871;-53
2021/12/10 08:32:54;;;;;;;5.97;4.17;;;3.60;99.90;;;;;;5055858;28;20629;-53
2021/12/10 08:35:23;;;;;;;7.40;4.33;;;3.60;99.90;;;;;;5055809;28;20251;-55
2021/12/10 08:37:51;;;;;;;5.77;4.20;;;3.60;99.90;;;;;;5055820;28;20213;-55
2021/12/10 08:40:22;;;;;;;8.40;4.40;;;3.50;99.90;;;;;;5055430;28;20291;-56
2021/12/10 08:42:50;;;;;;;6.70;4.10;;;3.60;99.90;;;;;;5055357;28;20229;-55
2021/12/10 08:45:19;;;;;;;5.47;3.77;;;3.60;99.90;;;;;;5056005;28;20201;-56
2021/12/10 08:47:46;;;;;;;7.27;3.67;;;3.80;99.90;;;;;;5056030;28;20228;-56
2021/12/10 08:50:16;;;;;;;5.97;3.63;;;3.90;99.90;;;;;;5055303;28;20225;-55
2021/12/10 08:52:43;;;;;;;8.07;4.10;;;4.00;99.90;;;;;;5056288;28;20260;-55
2021/12/10 08:55:11;;;;;;;22.90;14.03;;;4.10;99.90;;;;;;5055797;28;20225;-56
2021/12/10 08:57:38;;;;;;;6.47;4.13;;;4.20;99.90;;;;;;5056064;28;20730;-55
2021/12/10 09:00:09;;;;;;;6.70;3.70;;;4.30;99.90;;;;;;5056267;28;20738;-55
2021/12/10 09:02:37;;;;;;;6.33;3.10;;;4.40;99.90;;;;;;5055494;28;20233;-56
2021/12/10 09:05:05;;;;;;;7.37;3.57;;;4.50;99.90;;;;;;5056135;28;20251;-55
2021/12/10 09:07:32;;;;;;;4.63;3.17;;;4.50;99.90;;;;;;5055467;28;20216;-55
2021/12/10 09:09:59;;;;;;;4.63;3.50;;;4.60;99.90;;;;;;5055264;28;20272;-56
2021/12/10 09:12:27;;;;;;;5.13;3.23;;;4.80;99.90;;;;;;5055523;28;20311;-56
2021/12/10 09:14:56;;;;;;;4.37;3.00;;;5.00;99.90;;;;;;5055870;28;20681;-56
2021/12/10 09:17:26;;;;;;;3.67;2.67;;;5.20;99.90;;;;;;5055813;28;20239;-56
2021/12/10 09:19:56;;;;;;;4.47;2.60;;;5.50;99.90;;;;;;5055466;28;20206;-56
2021/12/10 09:22:25;;;;;;;3.40;2.20;;;5.70;99.90;;;;;;5055000;28;20579;-56
2021/12/10 09:24:54;;;;;;;4.23;2.50;;;5.90;99.90;;;;;;5054829;28;20206;-56
2021/12/10 09:27:21;;;;;;;3.93;2.50;;;6.00;99.90;;;;;;5054451;28;20255;-56
2021/12/10 09:29:52;;;;;;;3.27;2.40;;;6.10;99.90;;;;;;5054287;28;20300;-56
2021/12/10 09:32:20;;;;;;;5.40;2.67;;;6.30;99.90;;;;;;5054598;28;20208;-56
2021/12/10 09:34:49;;;;;;;3.37;2.20;;;6.30;99.90;;;;;;5054373;28;20225;-54
2021/12/10 09:37:17;;;;;;;3.40;2.00;;;6.20;99.90;;;;;;5054050;28;20588;-54
2021/12/10 09:39:48;;;;;;;5.93;2.47;;;6.20;99.90;;;;;;5053545;28;20209;-56
2021/12/10 09:42:15;;;;;;;3.60;2.23;;;6.30;99.90;;;;;;5053917;28;20212;-57
2021/12/10 09:44:42;;;;;;;3.57;2.03;;;6.30;99.90;;;;;;5054186;28;20258;-56
2021/12/10 09:47:14;;;;;;;3.43;2.20;;;6.20;99.90;;;;;;5054311;28;20212;-56
2021/12/10 09:49:41;;;;;;;2.90;2.00;;;6.20;99.90;;;;;;5054222;28;20690;-57
2021/12/10 09:52:10;;;;;;;7.90;2.40;;;6.30;99.90;;;;;;5054397;28;20206;-56
2021/12/10 09:54:39;;;;;;;4.97;2.47;;;6.30;99.90;;;;;;5053991;28;20488;-56
2021/12/10 09:57:09;;;;;;;3.33;2.40;;;6.20;99.90;;;;;;5054291;28;20205;-57
2021/12/10 09:59:36;;;;;;;5.43;2.60;;;6.20;99.90;;;;;;5054153;28;20745;-56
2021/12/10 10:02:04;;;;;;;4.93;2.40;;;6.10;99.90;;;;;;5054068;28;20700;-56
2021/12/10 10:04:34;;;;;;;3.67;2.17;;;6.10;99.90;;;;;;5053791;28;20197;-56
2021/12/10 10:07:05;;;;;;;3.47;2.30;;;6.00;99.90;;;;;;5053811;28;20210;-56
2021/12/10 10:09:33;;;;;;;3.30;2.40;;;6.00;99.90;;;;;;5054024;28;20244;-56
2021/12/10 10:12:04;;;;;;;3.23;2.50;;;5.90;99.90;;;;;;5054015;28;20226;-56
2021/12/10 10:14:31;;;;;;;7.47;3.20;;;5.90;99.90;;;;;;5053684;28;20232;-56
2021/12/10 10:16:58;;;;;;;3.43;2.30;;;5.70;99.90;;;;;;5053663;28;20645;-57
2021/12/10 10:19:26;;;;;;;6.00;2.17;;;5.70;99.90;;;;;;5053575;28;20209;-56
2021/12/10 10:21:55;;;;;;;3.60;2.20;;;5.50;99.90;;;;;;5053358;28;20253;-56
2021/12/10 10:24:27;;;;;;;6.30;4.20;;;5.30;99.90;;;;;;5053448;28;20214;-56
2021/12/10 10:26:59;;;;;;;6.83;3.60;;;5.30;99.90;;;;;;5054079;28;20267;-58
2021/12/10 10:29:32;;;;;;;11.10;6.20;;;5.40;99.90;;;;;;5055150;28;20627;-57
2021/12/10 10:32:09;;;;;;;8.90;5.43;;;5.50;99.90;;;;;;5055015;28;20236;-57
2021/12/10 10:34:37;;;;;;;4.50;2.90;;;5.50;99.90;;;;;;5053928;28;20229;-56
2021/12/10 10:37:04;;;;;;;16.37;7.83;;;5.50;99.90;;;;;;5053419;28;20212;-56
2021/12/10 10:39:34;;;;;;;13.40;8.97;;;5.50;99.90;;;;;;5053323;28;20646;-56
2021/12/10 10:42:04;;;;;;;8.93;4.60;;;5.60;99.90;;;;;;5052905;28;20713;-56
2021/12/10 10:44:31;;;;;;;3.80;2.33;;;5.60;99.90;;;;;;5052795;28;20202;-56
2021/12/10 10:47:01;;;;;;;4.60;2.20;;;5.70;99.90;;;;;;5053212;28;20209;-57
2021/12/10 10:49:36;;;;;;;3.93;2.77;;;5.80;99.90;;;;;;5053123;28;20206;-56
2021/12/10 10:52:19;;;;;;;4.30;2.23;;;6.00;99.90;;;;;;5052217;28;20259;-56
2021/12/10 10:54:47;;;;;;;2.97;2.27;;;6.10;99.90;;;;;;5052483;28;20229;-57
2021/12/10 10:57:18;;;;;;;5.13;2.37;;;6.30;99.90;;;;;;5052669;28;20197;-56
2021/12/10 10:59:48;;;;;;;4.40;2.00;;;6.40;99.90;;;;;;5052966;28;20201;-56
2021/12/10 11:02:15;;;;;;;3.53;1.83;;;6.40;99.90;;;;;;5052898;28;20201;-56
2021/12/10 11:04:45;;;;;;;5.20;3.00;;;6.40;99.90;;;;;;5052303;28;20561;-56
2021/12/10 11:07:15;;;;;;;6.00;3.53;;;6.30;99.90;;;;;;5052519;28;20244;-56
2021/12/10 11:09:47;;;;;;;3.20;2.03;;;6.40;99.90;;;;;;5052345;28;20209;-56
2021/12/10 11:12:20;;;;;;;8.83;4.77;;;6.40;99.90;;;;;;5052585;28;20674;-57
2021/12/10 11:14:50;;;;;;;1.80;1.20;;;6.40;99.90;;;;;;5052259;28;20717;-57
2021/12/10 11:17:20;;;;;;;3.27;1.83;;;6.10;99.90;;;;;;5052456;28;20708;-56
2021/12/10 11:19:53;;;;;;;3.50;2.00;;;6.00;99.90;;;;;;5052768;28;20213;-57
2021/12/10 11:22:23;;;;;;;2.60;1.90;;;6.00;99.90;;;;;;5052563;28;20674;-57
2021/12/10 11:24:55;;;;;;;3.63;1.60;;;6.10;99.90;;;;;;5052477;28;20205;-56
2021/12/10 11:27:27;;;;;;;2.70;1.50;;;6.20;99.90;;;;;;5052548;28;20243;-57
2021/12/10 11:30:04;;;;;;;2.20;1.30;;;6.30;99.90;;;;;;5052242;28;20576;-56
2021/12/10 11:32:35;;;;;;;4.20;1.80;;;6.30;99.90;;;;;;5051975;28;20209;-56
2021/12/10 11:35:10;;;;;;;2.60;1.57;;;6.40;99.90;;;;;;5052395;28;20229;-57
2021/12/10 11:37:48;;;;;;;5.07;1.87;;;6.50;99.90;;;;;;5051971;28;20688;-57
2021/12/10 11:40:40;;;;;;;3.60;1.30;;;6.40;99.90;;;;;;5052452;28;20233;-57
2021/12/10 11:46:15;;;;;;;2.43;1.37;;;6.70;99.90;;;;;;5034286;28;20230;-57
2021/12/10 11:48:44;;;;;;;1.70;1.30;;;6.90;99.90;;;;;;5052163;28;20232;-57
2021/12/10 11:51:15;;;;;;;2.57;1.33;;;7.00;99.90;;;;;;5051870;28;20229;-57
2021/12/10 11:53:45;;;;;;;3.70;1.20;;;7.10;99.90;;;;;;5052012;28;20202;-57
2021/12/10 11:56:18;;;;;;;3.83;1.50;;;7.20;99.90;;;;;;5052113;28;20320;-58
2021/12/10 11:59:04;;;;;;;2.60;1.60;;;7.30;99.90;;;;;;5052114;28;20688;-57
2021/12/10 12:01:31;;;;;;;3.80;1.60;;;7.30;99.90;;;;;;5052084;28;20233;-58
2021/12/10 12:03:58;;;;;;;1.13;1.03;;;7.30;99.90;;;;;;5050768;28;20236;-57
2021/12/10 12:06:24;;;;;;;2.77;1.70;;;7.20;99.90;;;;;;5052081;28;20209;-58
2021/12/10 12:08:51;;;;;;;3.07;1.60;;;7.20;99.90;;;;;;5052084;28;20301;-57
2021/12/10 12:11:18;;;;;;;5.40;1.50;;;7.20;99.90;;;;;;5052028;28;20225;-56
2021/12/10 12:13:54;;;;;;;2.33;1.73;;;7.10;99.90;;;;;;5051617;28;20206;-57
2021/12/10 12:16:26;;;;;;;2.13;1.23;;;7.00;99.90;;;;;;5051459;28;20232;-57
2021/12/10 12:18:58;;;;;;;6.40;3.53;;;7.00;99.90;;;;;;5052139;28;20205;-57
2021/12/10 12:24:56;;;;;;;3.23;1.10;;;7.00;99.90;;;;;;5052074;28;20291;-57
2021/12/10 12:27:19;;;;;;;2.23;1.20;;;6.80;99.90;;;;;;5052279;28;20275;-57
2021/12/10 12:29:52;;;;;;;1.63;1.03;;;6.80;99.90;;;;;;5051849;28;20205;-56
2021/12/10 12:32:21;;;;;;;1.10;0.90;;;6.70;99.90;;;;;;5052464;28;20201;-59
2021/12/10 12:34:50;;;;;;;2.50;1.13;;;6.70;99.90;;;;;;5051628;28;20637;-57
2021/12/10 12:37:19;;;;;;;1.80;1.20;;;6.70;99.90;;;;;;5051813;28;20210;-57
2021/12/10 12:39:48;;;;;;;3.07;1.30;;;6.80;99.90;;;;;;5052083;28;20205;-57
2021/12/10 12:42:23;;;;;;;2.97;1.20;;;6.90;99.90;;;;;;5052058;28;20202;-58
2021/12/10 12:44:53;;;;;;;1.43;1.00;;;6.70;99.90;;;;;;5051521;28;20732;-57
2021/12/10 12:47:23;;;;;;;2.47;1.20;;;6.70;99.90;;;;;;5051858;28;20205;-58
2021/12/10 12:50:00;;;;;;;1.87;1.23;;;6.70;99.90;;;;;;5051773;28;20304;-59
2021/12/10 12:52:32;;;;;;;2.60;1.17;;;6.40;99.90;;;;;;5052210;28;20526;-57
2021/12/10 12:55:11;;;;;;;5.00;2.07;;;6.30;99.90;;;;;;5051313;28;20643;-56
2021/12/10 12:57:40;;;;;;;2.27;1.70;;;6.30;99.90;;;;;;5051615;28;20267;-57
2021/12/10 13:00:12;;;;;;;3.07;2.00;;;6.10;99.90;;;;;;5051724;28;20232;-57
2021/12/10 13:02:39;;;;;;;5.07;2.10;;;5.90;99.90;;;;;;5051791;28;20603;-63
2021/12/10 13:05:09;;;;;;;2.27;1.60;;;5.80;99.90;;;;;;5051333;28;20626;-58
2021/12/10 13:07:37;;;;;;;1.80;1.23;;;5.60;99.90;;;;;;5051673;28;20202;-58
2021/12/10 13:10:08;;;;;;;1.83;1.17;;;5.50;99.90;;;;;;5051760;28;20229;-58
2021/12/10 13:12:44;;;;;;;2.73;1.23;;;5.40;99.90;;;;;;5051411;28;20221;-57
2021/12/10 13:15:15;;;;;;;2.83;1.37;;;5.20;99.90;;;;;;5053010;28;20240;-63
2021/12/10 13:17:46;;;;;;;3.10;1.67;;;4.90;99.90;;;;;;5050931;28;20501;-57
2021/12/10 13:20:19;;;;;;;2.53;1.77;;;4.80;99.90;;;;;;5054542;28;20230;-59